Time;durP1;ratioP1;P1;durP2;ratioP2;P2;SDS_P1;SDS_P2;PMS_P1;PMS_P2;Temp;Humidity;BMP_temperature;BMP_pressure;BME280_temperature;BME280_humidity;BME280_pressure;Samples;Min_cycle;Max_cycle;Signal;HPM_P1;HPM_P2
2023/01/24 00:00:10;;;;;;;9.52;4.85;;;2.50;99.90;;;;;;5029599;28;21007;-64
2023/01/24 00:02:36;;;;;;;9.15;4.75;;;2.50;99.90;;;;;;5015891;28;20161;-64
2023/01/24 00:05:03;;;;;;;9.68;4.95;;;2.50;99.90;;;;;;5032105;28;20104;-63
2023/01/24 00:07:28;;;;;;;9.20;5.40;;;2.60;99.90;;;;;;5019077;28;20131;-65
2023/01/24 00:09:54;;;;;;;6.88;3.97;;;2.60;99.90;;;;;;5024533;28;20483;-63
2023/01/24 00:12:19;;;;;;;8.50;4.85;;;2.70;99.90;;;;;;5023601;28;20087;-63
2023/01/24 00:14:45;;;;;;;8.35;4.75;;;2.70;99.90;;;;;;5029747;28;20504;-63
2023/01/24 00:17:11;;;;;;;10.15;6.32;;;2.60;99.90;;;;;;5024482;28;20030;-64
2023/01/24 00:19:36;;;;;;;9.52;5.47;;;2.60;99.90;;;;;;5023849;28;20087;-64
2023/01/24 00:22:03;;;;;;;12.68;5.85;;;2.50;99.90;;;;;;5027014;28;20506;-64
2023/01/24 00:24:29;;;;;;;13.75;6.28;;;2.50;99.90;;;;;;5017935;28;20480;-65
2023/01/24 00:26:55;;;;;;;9.80;5.25;;;2.50;99.90;;;;;;5021008;28;20456;-63
2023/01/24 00:29:21;;;;;;;9.65;5.53;;;2.50;99.90;;;;;;5030481;28;20026;-64
2023/01/24 00:31:46;;;;;;;12.93;6.68;;;2.50;99.90;;;;;;5031231;28;20044;-65
2023/01/24 00:34:12;;;;;;;12.10;6.18;;;2.40;99.90;;;;;;5036709;28;20039;-63
2023/01/24 00:36:37;;;;;;;11.20;6.03;;;2.40;99.90;;;;;;5021673;28;20536;-63
2023/01/24 00:39:03;;;;;;;9.25;5.00;;;2.40;99.90;;;;;;5024810;28;20038;-65
2023/01/24 00:41:29;;;;;;;7.50;4.40;;;2.40;99.90;;;;;;5024546;28;20403;-63
2023/01/24 00:43:55;;;;;;;8.02;4.55;;;2.50;99.90;;;;;;5025778;28;20041;-64
2023/01/24 00:46:21;;;;;;;8.10;4.70;;;2.50;99.90;;;;;;5033723;28;20049;-63
2023/01/24 00:48:47;;;;;;;9.32;4.88;;;2.50;99.90;;;;;;5035879;28;20073;-65
2023/01/24 00:51:12;;;;;;;9.43;5.10;;;2.60;99.90;;;;;;5039115;28;20778;-67
2023/01/24 00:53:38;;;;;;;7.97;4.90;;;2.60;99.90;;;;;;5033425;28;20037;-65
2023/01/24 00:56:04;;;;;;;7.78;4.57;;;2.50;99.90;;;;;;5028685;28;20033;-64
2023/01/24 00:58:31;;;;;;;7.90;4.35;;;2.50;99.90;;;;;;5023505;28;20116;-66
2023/01/24 01:01:00;;;;;;;8.20;4.68;;;2.50;99.90;;;;;;5022391;28;20029;-64
2023/01/24 01:03:25;;;;;;;6.82;4.38;;;2.50;99.90;;;;;;5001269;28;20175;-64
2023/01/24 01:06:00;;;;;;;9.52;4.70;;;2.50;99.90;;;;;;5020890;28;20037;-65
2023/01/24 01:08:26;;;;;;;5.82;3.80;;;2.50;99.90;;;;;;5024924;28;20056;-64
2023/01/24 01:10:52;;;;;;;6.47;3.88;;;2.50;99.90;;;;;;5001154;28;20558;-64
2023/01/24 01:13:18;;;;;;;6.97;4.10;;;2.60;99.90;;;;;;5017203;28;20033;-63
2023/01/24 01:15:43;;;;;;;7.70;4.20;;;2.50;99.90;;;;;;5021141;28;20037;-64
2023/01/24 01:18:09;;;;;;;10.30;4.65;;;2.50;99.90;;;;;;5035192;28;20341;-64
2023/01/24 01:20:34;;;;;;;6.65;4.40;;;2.50;99.90;;;;;;5033281;28;20151;-64
2023/01/24 01:23:00;;;;;;;5.75;3.72;;;2.50;99.90;;;;;;5031993;28;20033;-64
2023/01/24 01:25:25;;;;;;;7.57;4.72;;;2.50;99.90;;;;;;5029917;28;20025;-64
2023/01/24 01:27:51;;;;;;;8.95;4.78;;;2.40;99.90;;;;;;5032258;28;20051;-65
2023/01/24 01:30:17;;;;;;;8.60;4.47;;;2.40;99.90;;;;;;5021713;28;20032;-64
2023/01/24 01:32:42;;;;;;;9.05;4.95;;;2.40;99.90;;;;;;5021067;28;20525;-64
2023/01/24 01:35:08;;;;;;;9.18;4.47;;;2.40;99.90;;;;;;5019374;28;20037;-64
2023/01/24 01:37:34;;;;;;;9.05;4.82;;;2.30;99.90;;;;;;5027178;28;20028;-63
2023/01/24 01:39:59;;;;;;;8.70;5.35;;;2.30;99.90;;;;;;5023887;28;20021;-64
2023/01/24 01:42:25;;;;;;;9.80;5.40;;;2.30;99.90;;;;;;5026742;28;20025;-63
2023/01/24 01:44:53;;;;;;;11.40;6.05;;;2.30;99.90;;;;;;5009266;28;20037;-65
2023/01/24 01:47:33;;;;;;;6.85;4.32;;;2.40;99.90;;;;;;5015964;28;20078;-65
2023/01/24 01:50:07;;;;;;;6.32;4.35;;;2.50;99.90;;;;;;5016361;28;20509;-64
2023/01/24 01:52:42;;;;;;;6.90;4.28;;;2.40;99.90;;;;;;5034043;28;20037;-64
2023/01/24 01:55:30;;;;;;;7.50;4.65;;;2.40;99.90;;;;;;5018193;28;20045;-63
2023/01/24 01:57:57;;;;;;;7.65;4.18;;;2.50;99.90;;;;;;5020715;28;20037;-64
2023/01/24 02:00:25;;;;;;;8.07;4.63;;;2.40;99.90;;;;;;5018808;28;20036;-64
2023/01/24 02:05:58;;;;;;;6.82;3.78;;;2.50;99.90;;;;;;5028347;28;20035;-66
2023/01/24 02:08:24;;;;;;;8.32;4.25;;;2.50;99.90;;;;;;5023332;28;20108;-64
2023/01/24 02:13:39;;;;;;;6.93;4.18;;;2.50;99.90;;;;;;5026817;28;20135;-64
2023/01/24 02:16:06;;;;;;;7.35;4.05;;;2.40;99.90;;;;;;5029119;28;20071;-64
2023/01/24 02:18:37;;;;;;;5.63;3.50;;;2.40;99.90;;;;;;5030841;28;20035;-64
2023/01/24 02:21:07;;;;;;;9.52;4.72;;;2.40;99.90;;;;;;5038515;28;20025;-64
2023/01/24 02:23:47;;;;;;;8.10;4.18;;;2.30;99.90;;;;;;5033646;28;20178;-64
2023/01/24 02:26:25;;;;;;;7.47;4.05;;;2.40;99.90;;;;;;5043959;28;20026;-64
2023/01/24 02:29:06;;;;;;;5.38;3.45;;;2.30;99.90;;;;;;5025465;28;20283;-64
2023/01/24 02:31:52;;;;;;;8.23;3.63;;;2.30;99.90;;;;;;5024141;28;20404;-64
2023/01/24 02:34:17;;;;;;;8.52;4.65;;;2.30;99.90;;;;;;5020974;28;20841;-65
2023/01/24 02:36:43;;;;;;;6.75;4.07;;;2.30;99.90;;;;;;5021659;28;20029;-64
2023/01/24 02:39:14;;;;;;;8.00;4.40;;;2.30;99.90;;;;;;5035977;28;20026;-64
2023/01/24 02:41:50;;;;;;;6.68;3.70;;;2.30;99.90;;;;;;5021660;28;20026;-64
2023/01/24 02:44:43;;;;;;;5.72;3.50;;;2.30;99.90;;;;;;5029597;28;20071;-64
2023/01/24 02:47:08;;;;;;;8.20;3.95;;;2.30;99.90;;;;;;5020852;28;20021;-63
2023/01/24 02:49:34;;;;;;;6.70;3.33;;;2.30;99.90;;;;;;5029227;28;20098;-64
2023/01/24 02:54:44;;;;;;;6.90;4.10;;;2.30;99.90;;;;;;5011789;28;20136;-64
2023/01/24 02:59:53;;;;;;;6.38;3.70;;;2.20;99.90;;;;;;5009588;28;20072;-64
2023/01/24 03:02:19;;;;;;;7.30;4.32;;;2.20;99.90;;;;;;4985116;28;20045;-64
2023/01/24 03:04:44;;;;;;;5.80;3.92;;;2.10;99.90;;;;;;5009694;28;21116;-64
2023/01/24 03:07:10;;;;;;;7.80;4.22;;;2.10;99.90;;;;;;5006934;28;20088;-63
2023/01/24 03:09:38;;;;;;;6.07;3.67;;;2.10;99.90;;;;;;5007662;28;20036;-64
2023/01/24 03:36:43;;;;;;;7.22;4.78;;;2.20;99.90;;;;;;5005820;28;20080;-64
2023/01/24 03:41:55;;;;;;;6.97;4.18;;;2.10;99.90;;;;;;5007257;28;20048;-65
2023/01/24 03:44:20;;;;;;;9.18;4.35;;;2.10;99.90;;;;;;5006271;28;20029;-65
2023/01/24 03:46:47;;;;;;;6.68;4.30;;;2.00;99.90;;;;;;5000122;28;20779;-64
2023/01/24 03:49:13;;;;;;;8.43;4.53;;;2.00;99.90;;;;;;5002245;28;20025;-64
2023/01/24 03:54:22;;;;;;;8.05;4.70;;;2.10;99.90;;;;;;5002802;28;20175;-64
2023/01/24 03:56:48;;;;;;;9.07;4.55;;;2.10;99.90;;;;;;5002811;28;20069;-63
2023/01/24 03:59:14;;;;;;;7.38;4.38;;;2.10;99.90;;;;;;5003082;28;20466;-64
2023/01/24 04:01:39;;;;;;;5.70;3.50;;;2.10;99.90;;;;;;5004402;28;20037;-64
2023/01/24 04:04:05;;;;;;;7.20;4.55;;;2.10;99.90;;;;;;4988334;28;20551;-64
2023/01/24 04:06:31;;;;;;;6.35;4.43;;;2.20;99.90;;;;;;5007715;28;20080;-63
2023/01/24 04:08:56;;;;;;;8.63;3.97;;;2.20;99.90;;;;;;5010124;28;21696;-64
2023/01/24 04:11:22;;;;;;;6.95;4.15;;;2.10;99.90;;;;;;5016976;28;20041;-63
2023/01/24 04:13:47;;;;;;;7.88;4.80;;;2.10;99.90;;;;;;5001887;28;20044;-64
2023/01/24 04:16:14;;;;;;;7.72;4.28;;;2.00;99.90;;;;;;5010460;28;20022;-64
2023/01/24 04:18:40;;;;;;;8.25;4.60;;;2.00;99.90;;;;;;5004966;28;20030;-64
2023/01/24 04:21:06;;;;;;;8.52;4.25;;;1.90;99.90;;;;;;5004668;28;20380;-64
2023/01/24 04:23:31;;;;;;;8.15;4.38;;;1.90;99.90;;;;;;5007701;28;20066;-63
2023/01/24 04:25:59;;;;;;;6.60;4.25;;;1.90;99.90;;;;;;5007279;28;20531;-64
2023/01/24 04:28:25;;;;;;;8.80;4.85;;;1.90;99.90;;;;;;5006838;28;20021;-64
2023/01/24 04:30:58;;;;;;;6.63;4.30;;;1.90;99.90;;;;;;5006065;28;20838;-64
2023/01/24 04:33:24;;;;;;;6.35;4.28;;;1.90;99.90;;;;;;5005755;28;20034;-64
2023/01/24 04:35:49;;;;;;;5.70;3.65;;;1.90;99.90;;;;;;5004722;28;20083;-64
2023/01/24 04:38:15;;;;;;;7.50;3.88;;;1.80;99.90;;;;;;5005665;28;20707;-64
2023/01/24 04:40:40;;;;;;;10.30;4.22;;;1.80;99.90;;;;;;5004329;28;20025;-64
2023/01/24 04:43:06;;;;;;;7.85;4.35;;;1.80;99.90;;;;;;5020167;28;20026;-65
2023/01/24 04:45:32;;;;;;;8.20;4.20;;;1.80;99.90;;;;;;5022589;28;20056;-63
2023/01/24 04:47:57;;;;;;;9.90;4.93;;;1.80;99.90;;;;;;5025004;28;20132;-64
2023/01/24 04:50:23;;;;;;;8.25;4.70;;;1.80;99.90;;;;;;5025815;28;20072;-64
2023/01/24 04:52:49;;;;;;;7.30;4.28;;;1.80;99.90;;;;;;5025011;28;20033;-64
2023/01/24 04:55:15;;;;;;;6.97;4.25;;;1.80;99.90;;;;;;5025106;28;20033;-63
2023/01/24 04:57:40;;;;;;;10.82;4.40;;;1.70;99.90;;;;;;5023625;28;20514;-64
2023/01/24 05:00:08;;;;;;;7.72;4.30;;;1.70;99.90;;;;;;5024088;28;20105;-64
2023/01/24 05:02:34;;;;;;;6.35;3.95;;;1.70;99.90;;;;;;5024615;28;20016;-64
2023/01/24 05:04:59;;;;;;;7.10;3.78;;;1.70;99.90;;;;;;5005037;28;20045;-63
2023/01/24 05:07:25;;;;;;;6.95;4.45;;;1.80;99.90;;;;;;5020485;28;20046;-63
2023/01/24 05:09:50;;;;;;;5.70;3.65;;;1.90;99.90;;;;;;5025467;28;20034;-64
2023/01/24 05:12:16;;;;;;;7.70;3.80;;;1.90;99.90;;;;;;5020350;28;20049;-64
2023/01/24 05:14:41;;;;;;;6.97;3.65;;;1.90;99.90;;;;;;5024521;28;20045;-64
2023/01/24 05:17:07;;;;;;;5.60;4.00;;;1.80;99.90;;;;;;5023411;28;20518;-64
2023/01/24 05:19:32;;;;;;;6.82;3.65;;;1.80;99.90;;;;;;5026391;28;20072;-64
2023/01/24 05:21:58;;;;;;;7.28;4.00;;;1.80;99.90;;;;;;5026393;28;20030;-64
2023/01/24 05:24:24;;;;;;;7.25;4.20;;;1.80;99.90;;;;;;5023714;28;20051;-64
2023/01/24 05:26:49;;;;;;;5.75;4.03;;;1.80;99.90;;;;;;5023105;28;20025;-63
2023/01/24 05:29:15;;;;;;;7.60;4.28;;;1.80;99.90;;;;;;5023440;28;20029;-63
2023/01/24 05:31:40;;;;;;;6.18;4.00;;;1.80;99.90;;;;;;5023652;28;20048;-64
2023/01/24 05:34:06;;;;;;;5.63;3.50;;;1.80;99.90;;;;;;5022714;28;20029;-64
2023/01/24 05:36:32;;;;;;;6.82;4.07;;;1.80;99.90;;;;;;5027418;28;20037;-64
2023/01/24 05:38:57;;;;;;;5.50;4.05;;;1.80;99.90;;;;;;5039077;28;20033;-64
2023/01/24 05:41:23;;;;;;;6.80;4.40;;;1.80;99.90;;;;;;5027529;28;20021;-63
2023/01/24 05:43:49;;;;;;;5.43;3.55;;;1.80;99.90;;;;;;5026511;28;20026;-64
2023/01/24 05:46:22;;;;;;;7.88;4.50;;;1.80;99.90;;;;;;5028419;28;20099;-64
2023/01/24 05:48:48;;;;;;;6.60;4.27;;;1.80;99.90;;;;;;5036603;28;20434;-64
2023/01/24 05:51:17;;;;;;;12.70;4.18;;;1.90;99.90;;;;;;5029502;28;20479;-63
2023/01/24 05:53:43;;;;;;;6.00;3.97;;;1.90;99.90;;;;;;5029638;28;20063;-64
2023/01/24 05:56:19;;;;;;;6.63;4.00;;;1.90;99.90;;;;;;5035192;28;20033;-64
2023/01/24 05:58:47;;;;;;;6.13;4.05;;;1.80;99.90;;;;;;5016313;28;20037;-64
2023/01/24 06:01:19;;;;;;;7.65;4.93;;;1.80;99.90;;;;;;5018833;28;20048;-64
2023/01/24 06:03:46;;;;;;;8.30;4.57;;;1.80;99.90;;;;;;4999160;28;20072;-64
2023/01/24 06:06:14;;;;;;;6.95;4.40;;;1.80;99.90;;;;;;5034090;28;20049;-65
2023/01/24 06:08:41;;;;;;;7.15;4.65;;;1.80;99.90;;;;;;5020839;28;20025;-64
2023/01/24 06:11:18;;;;;;;6.22;4.22;;;1.80;99.90;;;;;;5019961;28;20128;-64
2023/01/24 06:13:44;;;;;;;5.90;3.88;;;1.80;99.90;;;;;;5019615;28;20029;-64
2023/01/24 06:16:11;;;;;;;8.88;4.10;;;1.80;99.90;;;;;;5021040;28;20407;-64
2023/01/24 06:18:37;;;;;;;6.82;3.97;;;1.80;99.90;;;;;;5025437;28;20379;-64
2023/01/24 06:21:06;;;;;;;6.60;3.90;;;1.80;99.90;;;;;;5034753;28;20037;-63
2023/01/24 06:23:32;;;;;;;5.88;3.80;;;1.80;99.90;;;;;;5035226;28;20049;-64
2023/01/24 06:25:58;;;;;;;8.57;4.22;;;1.80;99.90;;;;;;5021145;28;20030;-64
2023/01/24 06:28:24;;;;;;;7.43;4.03;;;1.80;99.90;;;;;;5025857;28;20034;-64
2023/01/24 06:31:14;;;;;;;7.65;4.80;;;1.80;99.90;;;;;;5019468;28;20112;-64
2023/01/24 06:34:08;;;;;;;6.22;3.80;;;1.80;99.90;;;;;;5022892;28;20021;-64
2023/01/24 06:36:52;;;;;;;7.63;4.13;;;1.80;99.90;;;;;;5031637;28;20026;-63
2023/01/24 06:39:18;;;;;;;6.80;3.63;;;1.80;99.90;;;;;;5023571;28;20033;-64
2023/01/24 06:41:43;;;;;;;8.85;3.63;;;1.70;99.90;;;;;;5023676;28;20056;-64
2023/01/24 06:44:12;;;;;;;7.00;3.67;;;1.80;99.90;;;;;;5026895;28;20040;-64
2023/01/24 06:46:38;;;;;;;6.90;4.00;;;1.80;99.90;;;;;;5023978;28;20498;-64
2023/01/24 06:49:03;;;;;;;6.30;3.28;;;1.80;99.90;;;;;;5031220;28;20041;-64
2023/01/24 06:51:29;;;;;;;6.75;4.28;;;1.80;99.90;;;;;;5030104;28;20042;-64
2023/01/24 06:53:55;;;;;;;6.57;3.85;;;1.70;99.90;;;;;;5023607;28;20037;-64
2023/01/24 06:56:20;;;;;;;6.93;3.97;;;1.80;99.90;;;;;;5016115;28;20030;-63
2023/01/24 06:58:47;;;;;;;5.95;4.00;;;1.80;99.90;;;;;;5020166;28;20075;-64
2023/01/24 07:01:12;;;;;;;5.70;3.65;;;1.80;99.90;;;;;;5018674;28;20040;-64
2023/01/24 07:03:38;;;;;;;6.88;3.88;;;1.80;99.90;;;;;;5003854;28;20132;-64
2023/01/24 07:06:04;;;;;;;5.65;3.42;;;1.80;99.90;;;;;;5020648;28;20042;-63
2023/01/24 07:08:29;;;;;;;6.20;3.17;;;1.80;99.90;;;;;;5024902;28;20091;-63
2023/01/24 07:10:58;;;;;;;6.47;3.42;;;1.80;99.90;;;;;;5026243;28;20037;-64
2023/01/24 07:13:23;;;;;;;7.82;3.90;;;1.80;99.90;;;;;;5023931;28;20029;-63
2023/01/24 07:15:49;;;;;;;9.07;3.83;;;1.80;99.90;;;;;;5026300;28;20049;-64
2023/01/24 07:18:17;;;;;;;7.25;3.80;;;1.80;99.90;;;;;;5028428;28;20045;-64
2023/01/24 07:20:43;;;;;;;7.95;4.60;;;1.70;99.90;;;;;;5023881;28;20030;-64
2023/01/24 07:23:16;;;;;;;6.55;3.70;;;1.70;99.90;;;;;;5021757;28;20472;-64
2023/01/24 07:25:42;;;;;;;7.45;4.43;;;1.80;99.90;;;;;;5027061;28;20398;-64
2023/01/24 07:28:08;;;;;;;7.07;3.90;;;1.80;99.90;;;;;;5025191;28;20480;-64
2023/01/24 07:30:34;;;;;;;7.70;4.28;;;1.80;99.90;;;;;;5028298;28;20052;-64
2023/01/24 07:32:59;;;;;;;7.28;4.57;;;2.00;99.90;;;;;;5033932;28;20036;-63
2023/01/24 07:35:25;;;;;;;7.18;4.13;;;2.00;99.90;;;;;;5039940;28;20083;-63
2023/01/24 07:37:50;;;;;;;6.40;3.95;;;2.00;99.90;;;;;;5018936;28;20025;-64
2023/01/24 07:40:16;;;;;;;5.95;3.80;;;2.00;99.90;;;;;;5030949;28;20080;-64
2023/01/24 07:42:41;;;;;;;5.82;3.90;;;2.00;99.90;;;;;;5030144;28;20037;-64
2023/01/24 07:45:07;;;;;;;6.82;4.10;;;2.00;99.90;;;;;;5027516;28;20549;-64
2023/01/24 07:47:33;;;;;;;7.68;4.50;;;2.00;99.90;;;;;;5027236;28;20036;-64
2023/01/24 07:49:59;;;;;;;10.48;5.72;;;2.00;99.90;;;;;;5030728;28;20034;-64
2023/01/24 07:52:24;;;;;;;6.45;4.43;;;2.00;99.90;;;;;;5027567;28;20037;-63
2023/01/24 07:54:50;;;;;;;8.02;4.40;;;2.10;99.90;;;;;;5038543;28;20394;-64
2023/01/24 07:57:16;;;;;;;6.05;3.85;;;2.10;99.90;;;;;;5043745;28;20034;-64
2023/01/24 07:59:41;;;;;;;6.43;4.38;;;2.20;99.90;;;;;;5019251;28;20076;-63
2023/01/24 08:02:12;;;;;;;8.13;4.10;;;2.20;99.90;;;;;;5021600;28;20062;-64
2023/01/24 08:04:38;;;;;;;7.05;4.10;;;2.30;99.90;;;;;;5006628;28;20522;-64
2023/01/24 08:07:16;;;;;;;6.63;4.28;;;2.30;99.90;;;;;;5017182;28;20029;-64
2023/01/24 08:09:42;;;;;;;6.10;4.30;;;2.30;99.90;;;;;;5024440;28;20064;-64
2023/01/24 08:12:07;;;;;;;7.22;4.22;;;2.30;99.90;;;;;;5026630;28;20099;-64
2023/01/24 08:14:33;;;;;;;8.48;4.53;;;2.40;99.90;;;;;;5039684;28;20506;-64
2023/01/24 08:16:58;;;;;;;7.40;4.30;;;2.40;99.90;;;;;;5027020;28;20057;-64
2023/01/24 08:19:24;;;;;;;5.68;3.90;;;2.50;99.90;;;;;;5034202;28;20033;-64
2023/01/24 08:21:50;;;;;;;5.90;3.95;;;2.50;99.90;;;;;;5036978;28;20181;-64
2023/01/24 08:24:16;;;;;;;4.07;2.67;;;2.50;99.90;;;;;;5039775;28;20040;-64
2023/01/24 08:26:41;;;;;;;6.70;4.05;;;2.50;99.90;;;;;;5037933;28;20062;-63
2023/01/24 08:29:07;;;;;;;10.60;5.38;;;2.40;99.90;;;;;;5030738;28;20030;-65
2023/01/24 08:31:32;;;;;;;6.78;4.50;;;2.40;99.90;;;;;;5030391;28;20124;-63
2023/01/24 08:33:58;;;;;;;8.40;4.43;;;2.50;99.90;;;;;;5033710;28;20038;-63
2023/01/24 08:36:24;;;;;;;7.78;4.90;;;2.50;99.90;;;;;;5039800;28;20033;-64
2023/01/24 08:38:49;;;;;;;7.57;4.82;;;2.50;99.90;;;;;;5035618;28;20452;-65
2023/01/24 08:41:15;;;;;;;7.00;4.47;;;2.50;99.90;;;;;;5028421;28;20032;-64
2023/01/24 08:43:42;;;;;;;9.27;4.90;;;2.50;99.90;;;;;;5029767;28;20082;-64
2023/01/24 08:46:07;;;;;;;10.43;5.32;;;2.70;99.90;;;;;;5031401;28;20037;-64
2023/01/24 08:48:33;;;;;;;9.93;4.82;;;2.80;99.90;;;;;;5024323;28;20052;-64
2023/01/24 08:51:01;;;;;;;7.63;4.95;;;2.70;99.90;;;;;;5025445;28;20471;-64
2023/01/24 08:53:28;;;;;;;8.80;5.10;;;2.80;99.90;;;;;;5024907;28;20499;-64
2023/01/24 08:55:53;;;;;;;8.52;4.97;;;2.80;99.90;;;;;;5028465;28;20025;-64
2023/01/24 08:58:20;;;;;;;9.98;5.22;;;2.90;99.90;;;;;;5024913;28;20059;-64
2023/01/24 09:00:46;;;;;;;8.50;4.70;;;2.90;99.90;;;;;;5023269;28;20040;-63
2023/01/24 09:03:17;;;;;;;8.40;4.72;;;2.90;99.90;;;;;;5029651;28;20029;-64
2023/01/24 09:05:43;;;;;;;7.45;4.50;;;3.00;99.90;;;;;;5025739;28;20099;-64
2023/01/24 09:08:09;;;;;;;7.90;4.90;;;3.10;99.90;;;;;;5027492;28;20042;-64
2023/01/24 09:10:35;;;;;;;7.20;4.13;;;3.10;99.90;;;;;;5024086;28;20113;-64
2023/01/24 09:13:02;;;;;;;12.77;6.13;;;3.10;99.90;;;;;;5026452;28;20116;-64
2023/01/24 09:15:28;;;;;;;7.75;4.32;;;3.10;99.90;;;;;;5032482;28;20043;-63
2023/01/24 09:17:53;;;;;;;8.70;4.60;;;3.10;99.90;;;;;;5021149;28;20029;-63
2023/01/24 09:20:19;;;;;;;8.00;4.35;;;3.00;99.90;;;;;;5027308;28;20056;-63
2023/01/24 09:22:45;;;;;;;8.55;4.47;;;3.00;99.90;;;;;;5028165;28;20033;-63
2023/01/24 09:25:10;;;;;;;9.32;5.05;;;3.00;99.90;;;;;;5029440;28;20022;-63
2023/01/24 09:27:36;;;;;;;7.70;4.78;;;3.10;99.90;;;;;;5027966;28;20501;-63
2023/01/24 09:30:04;;;;;;;8.43;4.78;;;3.10;99.90;;;;;;5026660;28;20064;-64
2023/01/24 09:32:30;;;;;;;8.00;4.80;;;3.10;99.90;;;;;;5028516;28;20025;-62
2023/01/24 09:34:56;;;;;;;7.47;4.70;;;3.10;99.90;;;;;;5025896;28;20103;-64
2023/01/24 09:37:22;;;;;;;11.25;5.13;;;3.00;99.90;;;;;;5033357;28;20021;-62
2023/01/24 09:39:48;;;;;;;8.52;5.38;;;3.00;99.90;;;;;;5019719;28;20597;-62
2023/01/24 09:42:22;;;;;;;9.65;5.15;;;3.10;99.90;;;;;;5037679;28;20021;-63
2023/01/24 09:45:06;;;;;;;8.35;4.40;;;3.10;99.90;;;;;;5032059;28;20025;-63
2023/01/24 09:47:57;;;;;;;10.73;6.35;;;3.10;99.90;;;;;;5036904;28;20555;-63
2023/01/24 09:50:28;;;;;;;7.90;4.93;;;3.20;99.90;;;;;;5035246;28;20077;-63
2023/01/24 09:52:58;;;;;;;8.55;5.07;;;3.20;99.90;;;;;;5023592;28;20036;-64
2023/01/24 09:55:41;;;;;;;8.90;4.18;;;3.20;99.90;;;;;;5023186;28;20514;-63
2023/01/24 09:58:31;;;;;;;8.27;5.13;;;3.20;99.90;;;;;;5027650;28;20107;-63
2023/01/24 10:01:08;;;;;;;9.13;5.20;;;3.40;99.90;;;;;;5030597;28;20044;-63
2023/01/24 10:03:35;;;;;;;9.68;5.55;;;3.30;99.90;;;;;;5006735;28;20040;-63
2023/01/24 10:06:33;;;;;;;7.65;4.82;;;3.40;99.90;;;;;;5026992;28;20102;-63
2023/01/24 10:09:08;;;;;;;8.70;5.65;;;3.50;99.90;;;;;;4994636;28;20049;-63
2023/01/24 10:12:02;;;;;;;9.02;5.05;;;3.40;99.90;;;;;;5013719;28;20079;-63
2023/01/24 10:14:50;;;;;;;14.23;6.60;;;3.40;99.90;;;;;;5019795;28;20046;-63
2023/01/24 10:17:24;;;;;;;11.70;6.40;;;3.40;99.90;;;;;;5023461;28;20033;-63
2023/01/24 10:20:01;;;;;;;5.20;3.85;;;3.40;99.90;;;;;;5030755;28;20120;-63
2023/01/24 10:23:01;;;;;;;7.65;4.72;;;3.40;99.90;;;;;;5035133;28;20025;-64
2023/01/24 10:25:49;;;;;;;6.90;4.20;;;3.40;99.90;;;;;;5019299;28;20037;-64
2023/01/24 10:28:40;;;;;;;11.05;4.45;;;3.50;99.90;;;;;;5029971;28;20390;-63
2023/01/24 10:31:14;;;;;;;7.85;4.38;;;3.50;99.90;;;;;;5023028;28;20018;-64
2023/01/24 10:34:09;;;;;;;6.95;4.13;;;3.60;99.90;;;;;;5019332;28;20036;-63
2023/01/24 10:36:57;;;;;;;8.75;4.70;;;3.60;99.90;;;;;;5023331;28;20021;-63
2023/01/24 10:39:23;;;;;;;6.13;4.40;;;3.40;99.90;;;;;;5019410;28;20437;-64
2023/01/24 10:41:49;;;;;;;6.97;4.28;;;3.50;99.90;;;;;;5032570;28;20033;-63
2023/01/24 10:44:29;;;;;;;9.15;4.70;;;3.40;99.90;;;;;;5022863;28;20116;-63
2023/01/24 10:47:25;;;;;;;8.63;5.05;;;3.50;99.90;;;;;;5021224;28;20033;-64
2023/01/24 10:49:58;;;;;;;8.05;4.70;;;3.60;99.90;;;;;;5039359;28;20033;-63
2023/01/24 10:52:23;;;;;;;10.93;5.80;;;3.60;99.90;;;;;;5027889;28;20025;-63
2023/01/24 10:54:57;;;;;;;9.68;5.80;;;3.70;99.90;;;;;;5034707;28;20025;-64
2023/01/24 10:57:43;;;;;;;;;;;3.80;99.90;;;;;;5019033;28;20025;-64
2023/01/24 11:00:25;;;;;;;8.15;5.07;;;3.70;99.90;;;;;;5012090;28;19920;-63
2023/01/24 11:02:53;;;;;;;6.85;4.68;;;3.80;99.90;;;;;;5015210;28;20032;-63
2023/01/24 11:05:20;;;;;;;9.15;5.50;;;3.80;99.90;;;;;;5010814;28;20045;-63
2023/01/24 11:07:58;;;;;;;6.93;4.43;;;3.70;99.90;;;;;;5030563;28;20036;-64
2023/01/24 11:10:42;;;;;;;8.52;4.45;;;3.80;99.90;;;;;;5014058;28;20504;-64
2023/01/24 11:13:32;;;;;;;7.43;4.68;;;3.80;99.90;;;;;;5026990;28;20037;-64
2023/01/24 11:16:14;;;;;;;6.10;4.22;;;3.80;99.90;;;;;;5012078;28;20159;-64
2023/01/24 11:18:47;;;;;;;7.68;4.88;;;3.80;99.90;;;;;;5017976;28;20032;-64
2023/01/24 11:21:16;;;;;;;7.50;4.90;;;3.80;99.90;;;;;;5031690;28;20028;-64
2023/01/24 11:23:42;;;;;;;6.40;4.05;;;3.70;99.90;;;;;;5009063;28;20071;-63
2023/01/24 11:26:27;;;;;;;7.45;4.35;;;3.90;99.90;;;;;;5018955;28;20517;-64
2023/01/24 11:29:05;;;;;;;7.00;4.13;;;3.90;99.90;;;;;;5019496;28;20109;-63
2023/01/24 11:31:47;;;;;;;6.63;4.10;;;4.00;99.90;;;;;;5022302;28;20113;-63
2023/01/24 11:34:34;;;;;;;6.90;4.50;;;3.80;99.90;;;;;;5029616;28;20032;-64
2023/01/24 11:37:08;;;;;;;6.43;4.78;;;3.70;99.90;;;;;;5024716;28;20087;-63
2023/01/24 11:40:14;;;;;;;5.80;4.57;;;3.60;99.90;;;;;;5024311;28;20506;-64
2023/01/24 11:42:50;;;;;;;8.68;5.00;;;3.80;99.90;;;;;;5032035;28;20029;-64
2023/01/24 11:45:30;;;;;;;8.77;4.32;;;3.80;99.90;;;;;;5030943;28;20014;-64
2023/01/24 11:48:18;;;;;;;6.97;4.50;;;3.80;99.90;;;;;;5028179;28;20034;-64
2023/01/24 11:51:05;;;;;;;7.55;4.57;;;3.90;99.90;;;;;;5032543;28;20036;-64
2023/01/24 11:53:31;;;;;;;6.57;4.43;;;3.90;99.90;;;;;;5032702;28;20018;-64
2023/01/24 11:56:41;;;;;;;6.85;3.92;;;3.80;99.90;;;;;;5029938;28;20128;-64
2023/01/24 11:59:20;;;;;;;7.80;4.60;;;3.80;99.90;;;;;;4965939;28;20035;-64
2023/01/24 12:02:12;;;;;;;7.05;4.68;;;3.90;99.90;;;;;;5021604;28;20046;-65
2023/01/24 12:05:15;;;;;;;8.23;5.00;;;4.00;99.90;;;;;;5003926;28;20049;-64
2023/01/24 12:08:01;;;;;;;7.28;4.20;;;3.90;99.90;;;;;;5018637;28;20033;-64
2023/01/24 12:10:51;;;;;;;7.45;4.53;;;3.80;99.90;;;;;;5024557;28;20041;-64
2023/01/24 12:13:38;;;;;;;9.20;4.10;;;3.90;99.90;;;;;;5027941;28;20063;-65
2023/01/24 12:16:30;;;;;;;7.22;4.20;;;3.90;99.90;;;;;;5029874;28;20049;-65
2023/01/24 12:19:22;;;;;;;6.55;4.50;;;4.00;99.90;;;;;;5018037;28;20033;-64
2023/01/24 12:21:50;;;;;;;6.38;3.90;;;4.00;99.90;;;;;;5029955;28;20067;-65
2023/01/24 12:24:24;;;;;;;8.32;4.55;;;4.00;99.90;;;;;;5038113;28;20111;-64
2023/01/24 12:26:57;;;;;;;6.03;3.97;;;4.00;99.90;;;;;;5027481;28;20587;-65
2023/01/24 12:29:31;;;;;;;6.35;4.57;;;3.90;99.90;;;;;;5023232;28;20049;-64
2023/01/24 12:32:05;;;;;;;7.15;4.47;;;3.80;99.90;;;;;;5027454;28;20044;-65
2023/01/24 12:34:33;;;;;;;;;;;3.80;99.90;;;;;;5025075;28;20075;-64
2023/01/24 12:37:38;;;;;;;6.70;4.10;;;3.90;99.90;;;;;;5025130;28;20316;-63
2023/01/24 12:40:15;;;;;;;6.72;4.25;;;4.10;99.90;;;;;;5014526;28;20045;-64
2023/01/24 12:42:52;;;;;;;7.20;4.68;;;4.00;99.90;;;;;;5022199;28;20029;-64
2023/01/24 12:45:39;;;;;;;5.80;4.28;;;4.00;99.90;;;;;;5022088;28;20037;-64
2023/01/24 12:48:28;;;;;;;9.57;4.63;;;4.00;99.90;;;;;;5038738;28;20116;-64
2023/01/24 12:51:13;;;;;;;7.32;4.68;;;4.00;99.90;;;;;;5027323;28;20020;-64
2023/01/24 12:54:10;;;;;;;7.60;4.93;;;4.00;99.90;;;;;;5020929;28;20036;-65
2023/01/24 12:56:42;;;;;;;7.90;4.05;;;4.20;99.90;;;;;;5030063;28;20017;-65
2023/01/24 12:59:10;;;;;;;7.43;4.93;;;4.20;99.90;;;;;;5022084;28;20079;-65
2023/01/24 13:02:02;;;;;;;10.07;4.28;;;4.00;99.90;;;;;;5028997;28;20322;-64
2023/01/24 13:04:58;;;;;;;6.90;4.32;;;4.10;99.90;;;;;;5007787;28;20046;-64
2023/01/24 13:07:23;;;;;;;9.38;5.05;;;3.90;99.90;;;;;;5032783;28;20480;-64
2023/01/24 13:10:03;;;;;;;7.63;4.85;;;3.80;99.90;;;;;;5026756;28;20025;-64
2023/01/24 13:12:29;;;;;;;6.57;3.75;;;3.70;99.90;;;;;;5031314;28;20116;-64
2023/01/24 13:15:26;;;;;;;19.88;10.45;;;3.70;99.90;;;;;;5033701;28;20064;-64
2023/01/24 13:18:18;;;;;;;11.18;7.00;;;3.60;99.90;;;;;;5031602;28;20087;-64
2023/01/24 13:21:05;;;;;;;5.82;3.47;;;3.70;99.90;;;;;;5031488;28;20033;-63
2023/01/24 13:23:55;;;;;;;5.35;3.53;;;3.90;99.90;;;;;;5025298;28;20064;-64
2023/01/24 13:26:46;;;;;;;5.50;3.47;;;3.90;99.90;;;;;;5036361;28;20080;-63
2023/01/24 13:29:20;;;;;;;18.48;10.15;;;3.90;99.90;;;;;;5032966;28;20517;-64
2023/01/24 13:32:15;;;;;;;5.95;3.92;;;3.90;99.90;;;;;;5033177;28;20037;-63
2023/01/24 13:34:42;;;;;;;7.95;4.78;;;3.80;99.90;;;;;;5034591;28;20121;-63
2023/01/24 13:37:20;;;;;;;7.45;5.35;;;3.80;99.90;;;;;;5035825;28;20033;-64
2023/01/24 13:39:47;;;;;;;7.13;3.63;;;3.80;99.90;;;;;;5025594;28;20029;-64
2023/01/24 13:42:31;;;;;;;6.75;3.90;;;3.80;99.90;;;;;;5027804;28;20021;-64
2023/01/24 13:44:57;;;;;;;5.47;3.95;;;3.70;99.90;;;;;;5026251;28;20033;-64
2023/01/24 13:49:54;;;;;;;8.00;4.90;;;3.70;99.90;;;;;;5004577;28;20046;-66
2023/01/24 13:52:31;;;;;;;7.97;5.22;;;3.70;99.90;;;;;;5023562;28;20021;-65
2023/01/24 13:54:58;;;;;;;7.30;4.78;;;3.70;99.90;;;;;;5007198;28;20072;-65
2023/01/24 13:57:32;;;;;;;8.40;3.97;;;3.70;99.90;;;;;;5016221;28;20559;-67
2023/01/24 14:00:14;;;;;;;5.72;4.38;;;3.70;99.90;;;;;;5004569;28;20087;-65
2023/01/24 14:02:53;;;;;;;7.00;4.10;;;3.70;99.90;;;;;;5008149;28;20032;-67